Time;durP1;ratioP1;P1;durP2;ratioP2;P2;SDS_P1;SDS_P2;PMS_P1;PMS_P2;Temp;Humidity;BMP_temperature;BMP_pressure;BME280_temperature;BME280_humidity;BME280_pressure;Samples;Min_cycle;Max_cycle;Signal;HPM_P1;HPM_P2
2023/12/19 00:02:10;;;;;;;1.20;1.20;;;;;-0.50;97123.00;;;;5072863;28;20267;-57
2023/12/19 00:04:37;;;;;;;1.97;1.87;;;;;-0.50;97133.00;;;;5072822;28;20737;-57
2023/12/19 00:07:06;;;;;;;1.87;1.77;;;;;-0.40;97126.00;;;;5072990;28;20233;-57
2023/12/19 00:09:34;;;;;;;2.40;1.60;;;;;-0.60;97131.00;;;;5072781;28;20190;-57
2023/12/19 00:12:01;;;;;;;2.40;1.60;;;;;-0.50;97118.00;;;;5072820;28;20662;-57
2023/12/19 00:14:28;;;;;;;2.97;2.03;;;;;-0.50;97119.00;;;;5073043;28;20541;-58
2023/12/19 00:16:58;;;;;;;1.87;1.77;;;;;-0.50;97114.00;;;;5072610;28;20576;-57
2023/12/19 00:19:25;;;;;;;3.83;2.77;;;;;-0.60;97109.00;;;;5072679;28;20652;-58
2023/12/19 00:21:53;;;;;;;1.77;1.67;;;;;-0.60;97115.00;;;;5072652;28;20213;-57
2023/12/19 00:24:21;;;;;;;3.27;2.00;;;;;-0.70;97084.00;;;;5072514;28;20200;-58
2023/12/19 00:26:49;;;;;;;2.67;2.33;;;;;-0.60;97092.00;;;;5073012;28;20196;-57
2023/12/19 00:29:16;;;;;;;2.10;2.00;;;;;-0.70;97071.00;;;;5072502;28;20201;-57
2023/12/19 00:31:44;;;;;;;3.57;2.77;;;;;-0.70;97051.00;;;;5072712;28;20222;-57
2023/12/19 00:34:13;;;;;;;3.53;3.33;;;;;-0.60;97042.00;;;;5072427;28;20262;-57
2023/12/19 00:36:41;;;;;;;2.67;2.43;;;;;-0.70;97040.00;;;;5072520;28;20202;-57
2023/12/19 00:39:09;;;;;;;3.67;2.90;;;;;-0.60;97042.00;;;;5054985;28;20251;-57
2023/12/19 00:41:37;;;;;;;2.67;2.47;;;;;-0.50;97039.00;;;;5072976;28;20224;-57
2023/12/19 00:44:05;;;;;;;2.10;1.93;;;;;-0.50;97041.00;;;;5072836;28;20225;-57
2023/12/19 00:46:32;;;;;;;2.90;2.70;;;;;-0.50;97038.00;;;;5072846;28;20200;-57
2023/12/19 00:49:00;;;;;;;2.17;1.97;;;;;-0.50;97038.00;;;;5058077;28;20547;-57
2023/12/19 00:51:28;;;;;;;1.70;1.60;;;;;-0.50;97041.00;;;;5075931;28;20188;-57
2023/12/19 00:53:55;;;;;;;1.23;1.23;;;;;-0.50;97041.00;;;;5076077;28;20204;-57
2023/12/19 00:56:22;;;;;;;1.50;1.40;;;;;-0.60;97043.00;;;;5076323;28;20558;-57
2023/12/19 00:58:51;;;;;;;1.50;1.40;;;;;-0.60;97034.00;;;;5075961;28;20576;-57
2023/12/19 01:01:23;;;;;;;1.90;1.43;;;;;-0.50;97031.00;;;;5076049;28;20675;-57
2023/12/19 01:03:51;;;;;;;1.17;1.17;;;;;-0.40;97036.00;;;;5075760;28;20176;-57
2023/12/19 01:06:18;;;;;;;2.10;1.50;;;;;-0.50;97041.00;;;;5075699;28;20196;-56
2023/12/19 01:08:46;;;;;;;1.23;1.17;;;;;-0.60;97043.00;;;;5075657;28;20268;-57
2023/12/19 01:11:13;;;;;;;0.90;0.90;;;;;-0.50;97033.00;;;;5076023;28;20193;-57
2023/12/19 01:13:41;;;;;;;3.07;1.83;;;;;-0.60;97039.00;;;;5076079;28;20661;-57
2023/12/19 01:16:09;;;;;;;1.23;1.23;;;;;-0.60;97021.00;;;;5075897;28;20661;-57
2023/12/19 01:18:37;;;;;;;1.90;1.70;;;;;-0.60;97026.00;;;;5075631;28;20221;-57
2023/12/19 01:21:05;;;;;;;1.90;1.80;;;;;-0.50;97018.00;;;;5075844;28;20228;-57
2023/12/19 01:23:32;;;;;;;2.17;2.00;;;;;-0.60;97027.00;;;;5075602;28;20218;-57
2023/12/19 01:25:59;;;;;;;1.47;1.37;;;;;-0.60;97016.00;;;;5075554;28;20200;-57
2023/12/19 01:28:27;;;;;;;1.50;1.43;;;;;-0.60;97016.00;;;;5075497;28;20191;-57
2023/12/19 01:30:54;;;;;;;1.73;1.63;;;;;-0.60;96966.00;;;;5075863;28;20196;-57
2023/12/19 01:33:23;;;;;;;1.47;1.37;;;;;-0.50;97026.00;;;;5075300;28;20801;-57
2023/12/19 01:35:50;;;;;;;2.17;1.30;;;;;-0.50;97036.00;;;;5075366;28;20197;-57
2023/12/19 01:38:18;;;;;;;1.70;1.60;;;;;-0.40;97036.00;;;;5075284;28;20194;-57
2023/12/19 01:40:45;;;;;;;2.20;1.50;;;;;-0.40;97054.00;;;;5075182;28;20251;-57
2023/12/19 01:43:19;;;;;;;1.40;1.30;;;;;-0.40;97049.00;;;;5075224;28;20219;-57
2023/12/19 01:45:47;;;;;;;1.20;1.20;;;;;-0.50;97049.00;;;;5075227;28;20196;-57
2023/12/19 01:48:16;;;;;;;1.20;1.20;;;;;-0.50;97049.00;;;;5075433;28;20189;-57
2023/12/19 01:50:46;;;;;;;1.33;1.33;;;;;-0.50;97039.00;;;;5057001;28;20695;-57
2023/12/19 01:53:13;;;;;;;1.67;1.57;;;;;-0.50;97026.00;;;;5075089;28;20680;-57
2023/12/19 01:55:41;;;;;;;1.70;1.60;;;;;-0.70;97010.00;;;;5074920;28;20586;-57
2023/12/19 01:58:10;;;;;;;0.97;0.97;;;;;-0.90;97013.00;;;;5074290;28;20292;-57
2023/12/19 02:00:38;;;;;;;2.27;1.53;;;;;-0.80;97014.00;;;;5074480;28;20284;-57
2023/12/19 02:03:06;;;;;;;1.20;1.20;;;;;-0.90;97017.00;;;;5074818;28;20220;-57
2023/12/19 02:05:37;;;;;;;3.60;2.30;;;;;-0.80;97031.00;;;;5074811;28;20194;-57
2023/12/19 02:08:06;;;;;;;1.63;1.50;;;;;-0.90;97037.00;;;;5074840;28;20186;-57
2023/12/19 02:10:34;;;;;;;1.43;1.40;;;;;-0.90;97026.00;;;;5074835;28;20201;-57
2023/12/19 02:13:01;;;;;;;2.50;2.30;;;;;-0.80;97017.00;;;;5074519;28;20220;-57
2023/12/19 02:15:29;;;;;;;1.03;1.03;;;;;-0.80;97027.00;;;;5074508;28;20280;-57
2023/12/19 02:17:56;;;;;;;1.67;1.57;;;;;-0.80;97025.00;;;;5074684;28;20607;-57
2023/12/19 02:20:23;;;;;;;1.50;1.40;;;;;-0.80;97031.00;;;;5074156;28;20675;-57
2023/12/19 02:22:53;;;;;;;2.10;2.00;;;;;-0.80;97033.00;;;;5074227;28;20212;-57
2023/12/19 02:25:21;;;;;;;0.93;0.93;;;;;-0.80;97026.00;;;;5074387;28;20195;-57
2023/12/19 02:27:48;;;;;;;1.60;1.50;;;;;-0.80;97033.00;;;;5074341;28;20243;-57
2023/12/19 02:30:16;;;;;;;6.07;2.23;;;;;-0.90;97020.00;;;;5074353;28;20196;-59
2023/12/19 02:32:45;;;;;;;1.37;1.27;;;;;-0.80;97017.00;;;;5074326;28;20219;-58
2023/12/19 02:35:12;;;;;;;1.20;1.20;;;;;-1.00;97024.00;;;;5074604;28;20225;-58
2023/12/19 02:37:41;;;;;;;1.67;1.57;;;;;-1.00;97004.00;;;;5074497;28;20202;-57
2023/12/19 02:40:12;;;;;;;2.27;1.43;;;;;-1.00;97006.00;;;;5073820;28;20221;-57
2023/12/19 02:42:41;;;;;;;2.53;1.60;;;;;-1.00;96997.00;;;;5073852;28;20232;-57
2023/12/19 02:45:10;;;;;;;1.53;1.43;;;;;-1.10;96976.00;;;;5073912;28;20188;-57
2023/12/19 02:47:38;;;;;;;1.77;1.67;;;;;-1.00;96967.00;;;;5074037;28;20208;-58
2023/12/19 02:50:06;;;;;;;2.47;1.90;;;;;-1.00;96963.00;;;;5073713;28;20193;-58
2023/12/19 02:52:33;;;;;;;1.70;1.60;;;;;-1.10;96966.00;;;;5073641;28;20266;-58
2023/12/19 02:55:01;;;;;;;0.90;0.90;;;;;-1.00;96965.00;;;;5073663;28;20677;-58
2023/12/19 02:57:30;;;;;;;2.80;1.87;;;;;-0.90;96965.00;;;;5074177;28;20200;-58
2023/12/19 02:59:57;;;;;;;1.33;1.33;;;;;-0.90;96959.00;;;;5073507;28;20226;-58
2023/12/19 03:02:25;;;;;;;1.57;1.47;;;;;-0.90;96957.00;;;;5073581;28;20210;-57
2023/12/19 03:04:52;;;;;;;1.43;1.33;;;;;-0.90;96951.00;;;;5073483;28;20193;-57
2023/12/19 03:07:19;;;;;;;1.10;1.10;;;;;-0.90;96959.00;;;;5074028;28;20278;-57
2023/12/19 03:09:47;;;;;;;1.40;1.30;;;;;-0.70;96968.00;;;;5073274;28;20193;-57
2023/12/19 03:12:14;;;;;;;1.70;1.60;;;;;-0.60;96969.00;;;;5073360;28;20713;-57
2023/12/19 03:14:43;;;;;;;1.30;1.30;;;;;-0.70;96983.00;;;;5073543;28;20188;-58
2023/12/19 03:17:11;;;;;;;2.47;1.73;;;;;-0.70;96982.00;;;;5073940;28;20172;-58
2023/12/19 03:19:38;;;;;;;2.57;2.20;;;;;-0.90;96986.00;;;;5073650;28;20269;-58
2023/12/19 03:22:06;;;;;;;1.73;1.63;;;;;-0.90;96986.00;;;;5073351;28;20240;-58
2023/12/19 03:24:33;;;;;;;1.13;1.13;;;;;-0.90;96991.00;;;;5073721;28;20199;-58
2023/12/19 03:27:00;;;;;;;1.17;1.17;;;;;-0.90;96975.00;;;;5074023;28;20265;-58
2023/12/19 03:29:28;;;;;;;2.13;1.93;;;;;-0.90;96967.00;;;;5073120;28;20239;-58
2023/12/19 03:31:57;;;;;;;1.13;1.13;;;;;-1.00;96969.00;;;;5073247;28;20236;-59
2023/12/19 03:34:24;;;;;;;2.70;2.50;;;;;-1.20;96973.00;;;;5073333;28;20199;-58
2023/12/19 03:36:52;;;;;;;2.30;2.10;;;;;-1.20;96974.00;;;;5072972;28;20273;-58
2023/12/19 03:39:19;;;;;;;1.53;1.43;;;;;-1.30;96968.00;;;;5072959;28;20222;-58
2023/12/19 03:41:46;;;;;;;1.10;1.10;;;;;-1.20;96951.00;;;;5073027;28;20213;-59
2023/12/19 03:44:14;;;;;;;1.70;1.60;;;;;-1.20;96948.00;;;;5073145;28;20636;-59
2023/12/19 03:46:41;;;;;;;1.50;1.40;;;;;-1.30;96947.00;;;;5072967;28;20193;-58
2023/12/19 03:49:10;;;;;;;1.10;1.10;;;;;-1.30;96945.00;;;;5055054;28;20195;-58
2023/12/19 03:51:37;;;;;;;1.23;1.23;;;;;-1.20;96934.00;;;;5072949;28;20219;-58
2023/12/19 03:54:04;;;;;;;2.87;2.10;;;;;-1.10;96939.00;;;;5073230;28;20195;-58
2023/12/19 03:56:34;;;;;;;1.63;1.53;;;;;-1.20;96937.00;;;;5072957;28;20201;-58
2023/12/19 03:59:01;;;;;;;1.07;1.07;;;;;-1.20;96934.00;;;;5073065;28;20199;-58
2023/12/19 04:01:30;;;;;;;1.43;1.40;;;;;-1.30;96940.00;;;;5072725;28;20215;-58
2023/12/19 04:03:58;;;;;;;2.73;2.20;;;;;-1.20;96926.00;;;;5072811;28;20237;-57
2023/12/19 04:06:26;;;;;;;1.90;1.80;;;;;-1.20;96934.00;;;;5072779;28;20595;-58
2023/12/19 04:08:54;;;;;;;1.63;1.53;;;;;-1.20;96928.00;;;;5073028;28;20667;-58
2023/12/19 04:11:21;;;;;;;2.33;2.13;;;;;-1.20;96921.00;;;;5072637;28;20510;-58
2023/12/19 04:13:49;;;;;;;1.50;1.47;;;;;-1.20;96907.00;;;;5072721;28;20192;-59
2023/12/19 04:16:16;;;;;;;1.13;1.13;;;;;-1.20;96908.00;;;;5072634;28;20612;-58
2023/12/19 04:18:46;;;;;;;2.27;1.87;;;;;-1.20;96908.00;;;;5054597;28;20191;-59
2023/12/19 04:21:14;;;;;;;3.10;1.97;;;;;-1.20;96906.00;;;;5072789;28;20585;-57
2023/12/19 04:23:42;;;;;;;1.57;1.47;;;;;-1.30;96918.00;;;;5076575;28;20191;-58
2023/12/19 04:26:10;;;;;;;1.87;1.67;;;;;-1.30;96914.00;;;;5076588;28;20257;-58
2023/12/19 04:28:38;;;;;;;1.33;1.33;;;;;-1.30;96901.00;;;;5058534;28;20660;-58
2023/12/19 04:31:05;;;;;;;1.30;1.30;;;;;-1.30;96906.00;;;;5076336;28;20187;-58
2023/12/19 04:33:33;;;;;;;1.00;1.00;;;;;-1.30;96899.00;;;;5076435;28;20207;-58
2023/12/19 04:36:01;;;;;;;0.93;0.93;;;;;-1.30;96902.00;;;;5076590;28;20223;-58
2023/12/19 04:38:28;;;;;;;1.77;1.33;;;;;-1.40;96892.00;;;;5076423;28;20195;-58
2023/12/19 04:40:57;;;;;;;1.33;1.33;;;;;-1.40;96905.00;;;;5076403;28;20221;-58
2023/12/19 04:43:24;;;;;;;1.57;1.47;;;;;-1.50;96894.00;;;;5058160;28;20217;-58
2023/12/19 04:45:51;;;;;;;1.83;1.67;;;;;-1.50;96901.00;;;;5076781;28;20192;-57
2023/12/19 04:48:19;;;;;;;1.47;1.37;;;;;-1.50;96898.00;;;;5058180;28;20290;-57
2023/12/19 04:50:46;;;;;;;2.27;2.07;;;;;-1.50;96894.00;;;;5058214;28;20202;-57
2023/12/19 04:53:13;;;;;;;1.27;1.27;;;;;-1.50;96880.00;;;;5076093;28;20237;-57
2023/12/19 04:55:41;;;;;;;0.93;0.93;;;;;-1.50;96872.00;;;;5076189;28;20208;-57
2023/12/19 04:58:09;;;;;;;1.70;1.27;;;;;-1.50;96875.00;;;;5075949;28;20192;-57
2023/12/19 05:00:37;;;;;;;1.40;1.30;;;;;-1.50;96875.00;;;;5075888;28;20223;-57
2023/12/19 05:03:05;;;;;;;0.83;0.83;;;;;-1.50;96871.00;;;;5075790;28;20207;-58
2023/12/19 05:05:32;;;;;;;1.93;1.60;;;;;-1.50;96864.00;;;;5075931;28;20210;-58
2023/12/19 05:08:00;;;;;;;1.40;1.40;;;;;-1.50;96872.00;;;;5075969;28;20196;-57
2023/12/19 05:10:27;;;;;;;2.17;2.00;;;;;-1.50;96865.00;;;;5076318;28;20193;-57
2023/12/19 05:12:54;;;;;;;1.13;1.13;;;;;-1.50;96877.00;;;;5075705;28;20303;-56
2023/12/19 05:15:23;;;;;;;1.13;1.03;;;;;-1.50;96876.00;;;;5057589;28;20215;-57
2023/12/19 05:17:51;;;;;;;1.40;1.30;;;;;-1.50;96871.00;;;;5075850;28;20196;-57
2023/12/19 05:20:18;;;;;;;1.30;1.20;;;;;-1.40;96873.00;;;;5075694;28;20212;-57
2023/12/19 05:22:45;;;;;;;1.57;1.27;;;;;-1.40;96864.00;;;;5075615;28;20216;-59
2023/12/19 05:25:13;;;;;;;1.30;1.30;;;;;-1.40;96870.00;;;;5075449;28;20191;-58
2023/12/19 05:27:43;;;;;;;3.33;3.03;;;;;-1.30;96864.00;;;;5075737;28;20549;-57
2023/12/19 05:30:12;;;;;;;2.00;1.90;;;;;-1.30;96863.00;;;;5076076;28;20183;-57
2023/12/19 05:32:41;;;;;;;1.10;1.10;;;;;-1.30;96868.00;;;;5075112;28;20209;-58
2023/12/19 05:35:09;;;;;;;1.23;1.23;;;;;-1.40;96850.00;;;;5074559;28;20517;-59
2023/12/19 05:37:36;;;;;;;1.77;1.67;;;;;-1.40;96860.00;;;;5075552;28;20552;-59
2023/12/19 05:40:04;;;;;;;1.07;1.07;;;;;-1.50;96857.00;;;;5057124;28;20246;-58
2023/12/19 05:42:31;;;;;;;1.47;1.37;;;;;-1.40;96841.00;;;;5075169;28;20220;-58
2023/12/19 05:44:59;;;;;;;1.10;1.10;;;;;-1.40;96843.00;;;;5075319;28;20193;-57
2023/12/19 05:47:26;;;;;;;1.80;1.70;;;;;-1.50;96851.00;;;;5075605;28;20191;-57
2023/12/19 05:49:55;;;;;;;1.00;1.00;;;;;-1.60;96859.00;;;;5075091;28;20261;-57
2023/12/19 05:52:23;;;;;;;2.07;1.87;;;;;-1.60;96847.00;;;;5075497;28;20218;-58
2023/12/19 05:54:50;;;;;;;1.37;1.27;;;;;-1.50;96844.00;;;;5075355;28;20199;-58
2023/12/19 05:57:17;;;;;;;1.60;1.50;;;;;-1.40;96836.00;;;;5074881;28;20195;-58
2023/12/19 05:59:45;;;;;;;1.27;1.27;;;;;-1.50;96843.00;;;;5074862;28;20234;-57
2023/12/19 06:02:12;;;;;;;1.27;1.27;;;;;-1.40;96838.00;;;;5074684;28;20688;-58
2023/12/19 06:04:39;;;;;;;1.27;1.20;;;;;-1.50;96833.00;;;;5075134;28;20188;-58
2023/12/19 06:07:08;;;;;;;1.13;1.13;;;;;-1.50;96842.00;;;;5057026;28;20203;-58
2023/12/19 06:09:36;;;;;;;2.47;1.73;;;;;-1.40;96844.00;;;;5075263;28;20206;-57
2023/12/19 06:12:03;;;;;;;1.93;1.73;;;;;-1.40;96828.00;;;;5074882;28;20218;-58
2023/12/19 06:14:31;;;;;;;1.07;1.07;;;;;-1.30;96843.00;;;;5074763;28;20279;-58
2023/12/19 06:16:59;;;;;;;1.73;1.63;;;;;-1.40;96845.00;;;;5075098;28;20198;-58
2023/12/19 06:19:26;;;;;;;1.20;1.20;;;;;-1.40;96836.00;;;;5074422;28;20257;-58
2023/12/19 06:21:54;;;;;;;2.40;1.37;;;;;-1.50;96852.00;;;;5074371;28;20745;-58
2023/12/19 06:24:22;;;;;;;4.10;1.37;;;;;-1.60;96845.00;;;;5074475;28;20192;-58
2023/12/19 06:26:50;;;;;;;1.23;1.23;;;;;-1.60;96848.00;;;;5074389;28;20192;-58
2023/12/19 06:29:17;;;;;;;1.83;1.67;;;;;-1.50;96851.00;;;;5074285;28;20192;-58
2023/12/19 06:31:45;;;;;;;1.63;1.53;;;;;-1.50;96853.00;;;;5074361;28;20251;-57
2023/12/19 06:34:12;;;;;;;1.17;1.17;;;;;-1.40;96856.00;;;;5074148;28;20695;-57
2023/12/19 06:36:41;;;;;;;3.27;2.33;;;;;-1.40;96856.00;;;;5074099;28;20663;-57
2023/12/19 06:39:08;;;;;;;2.37;1.83;;;;;-1.50;96857.00;;;;5074085;28;20200;-57
2023/12/19 06:41:37;;;;;;;2.37;1.80;;;;;-1.20;96869.00;;;;5073949;28;20250;-58
2023/12/19 06:44:05;;;;;;;0.90;0.90;;;;;-1.20;96874.00;;;;5074184;28;20195;-57
2023/12/19 06:46:32;;;;;;;4.23;1.67;;;;;-1.00;96879.00;;;;5073603;28;20655;-59
2023/12/19 06:49:00;;;;;;;1.17;1.17;;;;;-0.90;96872.00;;;;5073963;28;20195;-59
2023/12/19 06:51:28;;;;;;;1.03;1.03;;;;;-0.80;96874.00;;;;5073995;28;20191;-57
2023/12/19 06:53:57;;;;;;;2.03;1.93;;;;;-1.10;96873.00;;;;5074308;28;20203;-57
2023/12/19 06:56:26;;;;;;;0.80;0.80;;;;;-1.20;96882.00;;;;5074014;28;20799;-57
2023/12/19 06:58:55;;;;;;;2.00;1.13;;;;;-1.30;96859.00;;;;5073812;28;20623;-57
2023/12/19 07:01:24;;;;;;;1.50;1.40;;;;;-1.30;96843.00;;;;5073588;28;20602;-59
2023/12/19 07:03:51;;;;;;;1.20;1.20;;;;;-1.40;96852.00;;;;5074141;28;20200;-58
2023/12/19 07:06:18;;;;;;;7.43;2.23;;;;;-1.60;96836.00;;;;5055696;28;20670;-58
2023/12/19 07:08:46;;;;;;;2.53;1.90;;;;;-1.70;96834.00;;;;5073788;28;20193;-57
2023/12/19 07:11:13;;;;;;;3.90;3.67;;;;;-1.60;96827.00;;;;5074063;28;20192;-58
2023/12/19 07:13:41;;;;;;;2.67;2.00;;;;;-1.60;96828.00;;;;5073562;28;20196;-60
2023/12/19 07:16:15;;;;;;;5.53;1.77;;;;;-1.60;96837.00;;;;5087929;22;20238;-64
2023/12/19 07:18:43;;;;;;;2.60;2.40;;;;;-1.70;96822.00;;;;5073739;28;20188;-64
2023/12/19 07:21:19;;;;;;;2.87;2.67;;;;;-1.80;96834.00;;;;5073412;28;20709;-64
2023/12/19 07:23:46;;;;;;;3.00;2.10;;;;;-1.80;96833.00;;;;5035353;28;20208;-64
2023/12/19 07:26:21;;;;;;;8.80;3.20;;;;;-1.90;96820.00;;;;5053471;28;20200;-64
2023/12/19 07:28:49;;;;;;;2.13;2.03;;;;;-1.70;96830.00;;;;5035577;28;20658;-64
2023/12/19 07:31:22;;;;;;;3.77;2.87;;;;;-1.70;96830.00;;;;5053914;28;20667;-65
2023/12/19 07:33:55;;;;;;;1.53;1.43;;;;;-1.70;96838.00;;;;5053720;28;20180;-65
2023/12/19 07:36:23;;;;;;;4.87;2.47;;;;;-1.70;96827.00;;;;5053691;28;20271;-65
2023/12/19 07:38:51;;;;;;;2.40;2.23;;;;;-1.60;96831.00;;;;5058882;28;20230;-64
2023/12/19 07:41:18;;;;;;;2.37;2.07;;;;;-1.60;96826.00;;;;5058449;28;20216;-64
2023/12/19 07:43:46;;;;;;;5.93;4.53;;;;;-1.70;96826.00;;;;5059546;28;20196;-64
2023/12/19 07:46:14;;;;;;;3.17;2.83;;;;;-1.60;96826.00;;;;5055425;28;20192;-64
2023/12/19 07:48:43;;;;;;;5.67;4.37;;;;;-1.50;96821.00;;;;5053736;28;20196;-64
2023/12/19 07:51:15;;;;;;;5.27;4.60;;;;;-1.50;96819.00;;;;5053377;28;20188;-64
2023/12/19 07:53:42;;;;;;;6.30;4.57;;;;;-1.50;96802.00;;;;5053400;28;20169;-64
2023/12/19 07:56:09;;;;;;;4.43;4.00;;;;;-1.30;96823.00;;;;5053203;28;20529;-64
2023/12/19 07:58:37;;;;;;;3.70;2.43;;;;;-1.10;96824.00;;;;5057317;28;20192;-65
2023/12/19 08:01:05;;;;;;;2.10;1.47;;;;;-1.20;96835.00;;;;5057328;28;20212;-64
2023/12/19 08:03:33;;;;;;;1.40;1.30;;;;;-1.20;96826.00;;;;5057199;28;20311;-64
2023/12/19 08:06:03;;;;;;;1.90;1.80;;;;;-1.10;96826.00;;;;5039397;28;20205;-64
2023/12/19 08:08:30;;;;;;;3.00;1.33;;;;;-1.00;96847.00;;;;5057182;28;20203;-64
2023/12/19 08:10:58;;;;;;;1.27;1.17;;;;;-1.00;96828.00;;;;5057682;28;20196;-64
2023/12/19 08:13:27;;;;;;;1.43;1.33;;;;;-0.80;96834.00;;;;5056872;28;20213;-64
2023/12/19 08:15:54;;;;;;;1.60;1.50;;;;;-0.80;96809.00;;;;5056824;28;20567;-65
2023/12/19 08:18:22;;;;;;;2.53;2.13;;;;;-0.70;96812.00;;;;5056874;28;20201;-70
2023/12/19 08:20:49;;;;;;;3.57;3.00;;;;;-0.70;96812.00;;;;5057456;28;20589;-65
2023/12/19 08:23:18;;;;;;;2.40;2.03;;;;;-0.70;96795.00;;;;5038873;28;20229;-65
2023/12/19 08:25:46;;;;;;;3.20;2.77;;;;;-0.60;96794.00;;;;5057249;28;20192;-65
2023/12/19 08:28:14;;;;;;;2.60;2.40;;;;;-0.50;96787.00;;;;5056951;28;20687;-65
2023/12/19 08:30:42;;;;;;;3.73;3.27;;;;;-0.50;96794.00;;;;5056968;28;20216;-65
2023/12/19 08:33:09;;;;;;;2.77;2.57;;;;;-0.40;96792.00;;;;5056695;28;20220;-65
2023/12/19 08:35:36;;;;;;;1.67;1.63;;;;;-0.50;96783.00;;;;5056646;28;20544;-65
2023/12/19 08:38:04;;;;;;;4.10;2.83;;;;;-0.40;96774.00;;;;5056532;28;20205;-65
2023/12/19 08:40:33;;;;;;;5.53;2.97;;;;;-0.40;96784.00;;;;5056854;28;20264;-65
2023/12/19 08:43:03;;;;;;;3.53;3.23;;;;;-0.40;96788.00;;;;5056542;28;20214;-65
2023/12/19 08:45:30;;;;;;;5.37;3.07;;;;;-0.30;96786.00;;;;5056557;28;20204;-65
2023/12/19 08:47:58;;;;;;;3.60;2.67;;;;;-0.20;96783.00;;;;5056355;28;20201;-65
2023/12/19 08:50:25;;;;;;;2.10;1.90;;;;;-0.10;96793.00;;;;5056362;28;20279;-65
2023/12/19 08:52:53;;;;;;;1.67;1.57;;;;;-0.20;96780.00;;;;5056385;28;20727;-65
2023/12/19 08:55:20;;;;;;;1.20;1.20;;;;;-0.10;96780.00;;;;5056301;28;20191;-64
2023/12/19 08:57:50;;;;;;;1.93;1.80;;;;;0.00;96781.00;;;;5056422;28;20191;-64
2023/12/19 09:00:19;;;;;;;1.57;1.47;;;;;-0.10;96782.00;;;;5056071;28;20221;-64
2023/12/19 09:02:47;;;;;;;1.83;1.73;;;;;0.00;96784.00;;;;5056033;28;20211;-64
2023/12/19 09:05:16;;;;;;;1.70;1.60;;;;;0.20;96773.00;;;;5056081;28;20195;-65
2023/12/19 09:07:46;;;;;;;1.50;1.50;;;;;0.10;96763.00;;;;5055672;28;20201;-64
2023/12/19 09:10:14;;;;;;;1.70;1.60;;;;;0.30;96777.00;;;;5055997;28;20555;-64
2023/12/19 09:12:42;;;;;;;2.33;2.23;;;;;0.30;96783.00;;;;5055905;28;20214;-64
2023/12/19 09:15:11;;;;;;;2.47;1.80;;;;;0.50;96772.00;;;;5055648;28;20191;-64
2023/12/19 09:17:39;;;;;;;1.60;1.50;;;;;0.70;96774.00;;;;5055956;28;20643;-63
2023/12/19 09:20:07;;;;;;;2.43;2.20;;;;;0.50;96770.00;;;;5055844;28;20198;-64
2023/12/19 09:22:36;;;;;;;1.20;1.20;;;;;0.60;96760.00;;;;5055483;28;20223;-64
2023/12/19 09:25:05;;;;;;;1.67;1.57;;;;;0.80;96754.00;;;;5055853;28;20195;-64
2023/12/19 09:27:33;;;;;;;2.10;2.00;;;;;0.90;96751.00;;;;5055631;28;20278;-64
2023/12/19 09:30:00;;;;;;;12.07;2.00;;;;;1.00;96742.00;;;;5055731;28;20550;-64
2023/12/19 09:32:29;;;;;;;6.50;2.87;;;;;1.10;96743.00;;;;5055439;28;20207;-64
2023/12/19 09:34:56;;;;;;;3.77;3.13;;;;;1.20;96734.00;;;;5055367;28;20253;-64
2023/12/19 09:37:26;;;;;;;2.00;1.87;;;;;1.40;96723.00;;;;5055819;28;20199;-64
2023/12/19 09:39:53;;;;;;;2.03;1.93;;;;;1.50;96716.00;;;;5037542;28;20245;-65
2023/12/19 09:42:21;;;;;;;3.43;1.57;;;;;1.60;96709.00;;;;5055300;28;20714;-64
2023/12/19 09:44:49;;;;;;;2.40;2.13;;;;;1.70;96718.00;;;;5037478;28;20203;-64
2023/12/19 09:47:21;;;;;;;1.77;1.67;;;;;1.90;96727.00;;;;5055330;28;20261;-65
2023/12/19 09:49:53;;;;;;;2.70;1.73;;;;;2.00;96729.00;;;;5055404;28;20180;-64
2023/12/19 09:52:24;;;;;;;2.57;2.37;;;;;2.00;96726.00;;;;5055342;28;20695;-65
2023/12/19 09:54:52;;;;;;;2.43;2.23;;;;;2.10;96744.00;;;;5055397;28;20245;-64
2023/12/19 09:57:21;;;;;;;2.27;2.07;;;;;2.00;96744.00;;;;5055242;28;20198;-64
2023/12/19 09:59:49;;;;;;;2.47;2.10;;;;;2.20;96744.00;;;;5055472;28;20585;-65
2023/12/19 10:02:17;;;;;;;2.07;1.70;;;;;2.20;96742.00;;;;5055006;28;20258;-65
2023/12/19 10:04:45;;;;;;;3.07;2.40;;;;;2.10;96733.00;;;;5055301;28;20230;-65
2023/12/19 10:07:14;;;;;;;2.63;2.13;;;;;2.10;96741.00;;;;5055592;28;20203;-65
2023/12/19 10:09:54;;;;;;;1.47;1.47;;;;;2.10;96727.00;;;;5069329;28;20180;-65
2023/12/19 10:12:25;;;;;;;2.17;2.07;;;;;2.20;96714.00;;;;5080294;28;20290;-65
2023/12/19 10:14:52;;;;;;;2.13;1.57;;;;;2.20;96731.00;;;;5069252;28;20187;-65
2023/12/19 10:17:22;;;;;;;1.67;1.57;;;;;1.80;96723.00;;;;5056562;28;20206;-65
2023/12/19 10:19:49;;;;;;;1.70;1.60;;;;;2.10;96727.00;;;;5055669;28;20256;-65
2023/12/19 10:22:21;;;;;;;2.77;2.50;;;;;2.20;96728.00;;;;5055876;28;20740;-65
2023/12/19 10:24:48;;;;;;;2.43;1.83;;;;;2.20;96718.00;;;;5056245;28;20192;-65
2023/12/19 10:27:22;;;;;;;1.60;1.50;;;;;2.20;96732.00;;;;5056652;28;20188;-65
2023/12/19 10:29:50;;;;;;;1.57;1.47;;;;;2.20;96721.00;;;;5056445;28;20180;-64
2023/12/19 10:32:20;;;;;;;2.07;1.50;;;;;2.30;96726.00;;;;5055500;28;20236;-64
2023/12/19 10:34:55;;;;;;;2.37;2.13;;;;;2.30;96706.00;;;;5055292;28;20248;-64
2023/12/19 10:37:28;;;;;;;2.23;2.03;;;;;2.40;96722.00;;;;5055235;28;20207;-64
2023/12/19 10:40:10;;;;;;;1.40;1.30;;;;;2.60;96711.00;;;;5055335;28;20193;-64
2023/12/19 10:42:38;;;;;;;2.77;1.47;;;;;2.80;96702.00;;;;5068820;28;20204;-64
2023/12/19 10:45:07;;;;;;;1.00;1.00;;;;;2.90;96695.00;;;;5059154;28;20200;-65
2023/12/19 10:47:34;;;;;;;2.63;2.27;;;;;3.20;96678.00;;;;5054514;28;20192;-66
2023/12/19 10:50:02;;;;;;;6.40;2.60;;;;;3.40;96675.00;;;;5054522;28;20188;-64
2023/12/19 10:52:35;;;;;;;1.63;1.53;;;;;3.60;96680.00;;;;5054386;28;20684;-64
2023/12/19 10:55:05;;;;;;;1.53;1.43;;;;;3.70;96678.00;;;;5054490;28;20670;-64
2023/12/19 10:57:35;;;;;;;1.67;1.57;;;;;3.90;96674.00;;;;5054985;28;20624;-65
2023/12/19 11:00:09;;;;;;;3.23;2.90;;;;;4.40;96662.00;;;;5054364;28;20265;-65
2023/12/19 11:02:42;;;;;;;2.87;2.57;;;;;4.70;96647.00;;;;5054284;28;20315;-65
2023/12/19 11:05:19;;;;;;;1.93;1.83;;;;;5.60;96647.00;;;;5054070;28;20172;-65
2023/12/19 11:07:52;;;;;;;2.10;1.40;;;;;6.50;96625.00;;;;5053991;28;20191;-65
2023/12/19 11:10:22;;;;;;;2.47;2.33;;;;;7.20;96634.00;;;;5053890;28;20178;-65
2023/12/19 11:12:51;;;;;;;3.03;2.17;;;;;6.80;96660.00;;;;5054105;28;20206;-65
2023/12/19 11:15:19;;;;;;;1.20;1.20;;;;;6.30;96638.00;;;;5054190;28;20231;-66
2023/12/19 11:17:52;;;;;;;1.57;1.47;;;;;7.40;96618.00;;;;5053907;28;20189;-65
2023/12/19 11:20:24;;;;;;;1.13;1.13;;;;;9.90;96593.00;;;;5054358;28;20178;-65
2023/12/19 11:23:01;;;;;;;1.83;1.67;;;;;9.80;96608.00;;;;5053652;28;20227;-63
2023/12/19 11:25:33;;;;;;;2.80;2.23;;;;;11.20;96580.00;;;;5053872;28;20238;-64
2023/12/19 11:28:03;;;;;;;7.27;1.93;;;;;12.00;96590.00;;;;5054077;28;20567;-64
2023/12/19 11:30:35;;;;;;;2.23;2.13;;;;;13.80;96552.00;;;;5053430;28;20188;-65
2023/12/19 11:33:03;;;;;;;2.07;1.93;;;;;14.90;96558.00;;;;5035591;28;20632;-64
2023/12/19 11:35:32;;;;;;;3.13;2.30;;;;;13.70;96569.00;;;;5053338;28;20249;-65
2023/12/19 11:38:28;;;;;;;1.77;1.67;;;;;13.70;96567.00;;;;5053600;28;20564;-65
2023/12/19 11:40:57;;;;;;;2.30;1.67;;;;;13.60;96628.00;;;;5053706;28;20184;-65
2023/12/19 11:43:54;;;;;;;3.50;1.97;;;;;10.50;96640.00;;;;5053104;28;20224;-65
2023/12/19 11:46:21;;;;;;;1.53;1.43;;;;;7.80;96628.00;;;;5053202;28;20615;-65
2023/12/19 11:48:50;;;;;;;3.10;2.80;;;;;6.60;96637.00;;;;5053215;28;20188;-65
2023/12/19 11:51:50;;;;;;;2.03;1.87;;;;;5.30;96623.00;;;;5053118;28;20269;-65
2023/12/19 11:54:19;;;;;;;3.27;1.20;;;;;4.90;96610.00;;;;5053250;28;20203;-65
2023/12/19 11:57:01;;;;;;;1.23;1.23;;;;;4.50;96601.00;;;;5035250;28;20652;-65
2023/12/19 11:59:49;;;;;;;1.07;1.03;;;;;4.10;96587.00;;;;5053750;28;20179;-65
2023/12/19 12:02:30;;;;;;;3.60;1.40;;;;;3.70;96596.00;;;;5053008;28;20219;-65
2023/12/19 12:05:06;;;;;;;1.67;1.57;;;;;3.70;96584.00;;;;5053218;28;20182;-65
2023/12/19 12:07:33;;;;;;;1.40;1.30;;;;;3.60;96566.00;;;;5053800;28;20190;-66
2023/12/19 12:10:09;;;;;;;2.13;2.03;;;;;3.50;96584.00;;;;5053071;28;20194;-65
2023/12/19 12:12:37;;;;;;;1.23;1.23;;;;;3.60;96591.00;;;;5053222;28;20344;-65
2023/12/19 12:15:08;;;;;;;1.50;1.40;;;;;3.40;96577.00;;;;5052854;28;20202;-66
2023/12/19 12:17:36;;;;;;;1.87;1.77;;;;;3.30;96575.00;;;;5053009;28;20191;-66
2023/12/19 12:20:04;;;;;;;1.40;1.37;;;;;3.20;96567.00;;;;5053142;28;20356;-66
2023/12/19 12:22:33;;;;;;;2.20;2.00;;;;;3.30;96570.00;;;;5052821;28;20212;-65
2023/12/19 12:25:00;;;;;;;4.03;2.13;;;;;3.30;96567.00;;;;5053291;28;20195;-65
2023/12/19 12:27:30;;;;;;;2.13;2.03;;;;;3.20;96571.00;;;;5053055;28;20196;-65
2023/12/19 12:30:00;;;;;;;1.93;1.83;;;;;3.20;96559.00;;;;5052942;28;20294;-65